sensor_id;sensor_type;location;lat;lon;timestamp;pressure;altitude;pressure_sealevel;temperature;humidity
6829;BME280;17930;48.592;8.868;2023-07-29T04:49:29;96257.13;;;16.52;100.00
6829;BME280;17930;48.592;8.868;2023-07-29T04:51:56;96271.63;;;16.58;100.00
6829;BME280;17930;48.592;8.868;2023-07-29T04:54:23;96255.41;;;16.56;100.00
6829;BME280;17930;48.592;8.868;2023-07-29T04:56:50;96246.97;;;16.62;100.00
6829;BME280;17930;48.592;8.868;2023-07-29T04:59:17;96238.34;;;16.74;100.00
6829;BME280;17930;48.592;8.868;2023-07-29T05:01:44;96252.31;;;16.74;100.00
6829;BME280;17930;48.592;8.868;2023-07-29T05:04:11;96245.66;;;16.77;100.00
6829;BME280;17930;48.592;8.868;2023-07-29T05:06:40;96243.09;;;17.00;100.00
6829;BME280;17930;48.592;8.868;2023-07-29T05:09:14;96240.38;;;17.09;100.00
6829;BME280;17930;48.592;8.868;2023-07-29T05:11:41;96231.78;;;17.00;100.00
6829;BME280;17930;48.592;8.868;2023-07-29T05:14:10;96231.59;;;17.05;100.00
6829;BME280;17930;48.592;8.868;2023-07-29T05:16:37;96223.69;;;17.05;100.00
6829;BME280;17930;48.592;8.868;2023-07-29T05:19:05;96222.16;;;17.04;100.00
6829;BME280;17930;48.592;8.868;2023-07-29T05:21:32;96230.47;;;17.06;100.00
6829;BME280;17930;48.592;8.868;2023-07-29T05:24:01;96245.22;;;17.07;100.00
6829;BME280;17930;48.592;8.868;2023-07-29T05:26:28;96252.91;;;17.12;100.00
6829;BME280;17930;48.592;8.868;2023-07-29T05:28:55;96250.91;;;17.09;100.00
6829;BME280;17930;48.592;8.868;2023-07-29T05:31:23;96236.75;;;17.34;100.00
6829;BME280;17930;48.592;8.868;2023-07-29T05:33:50;96234.91;;;17.14;100.00
6829;BME280;17930;48.592;8.868;2023-07-29T05:36:17;96237.56;;;17.14;100.00
6829;BME280;17930;48.592;8.868;2023-07-29T05:38:44;96230.97;;;17.20;100.00
6829;BME280;17930;48.592;8.868;2023-07-29T05:41:13;96220.59;;;17.23;100.00
6829;BME280;17930;48.592;8.868;2023-07-29T05:43:40;96227.25;;;17.21;100.00
6829;BME280;17930;48.592;8.868;2023-07-29T05:46:09;96229.03;;;17.29;100.00
6829;BME280;17930;48.592;8.868;2023-07-29T05:48:36;96225.56;;;17.37;100.00
6829;BME280;17930;48.592;8.868;2023-07-29T05:51:03;96218.97;;;17.43;100.00
6829;BME280;17930;48.592;8.868;2023-07-29T05:53:30;96219.75;;;17.55;100.00
6829;BME280;17930;48.592;8.868;2023-07-29T05:55:57;96208.25;;;17.83;100.00
6829;BME280;17930;48.592;8.868;2023-07-29T05:58:25;96207.34;;;18.27;100.00
6829;BME280;17930;48.592;8.868;2023-07-29T06:00:52;96213.94;;;18.33;100.00
6829;BME280;17930;48.592;8.868;2023-07-29T06:03:19;96228.03;;;18.37;100.00
6829;BME280;17930;48.592;8.868;2023-07-29T06:05:46;96215.81;;;18.32;100.00
6829;BME280;17930;48.592;8.868;2023-07-29T06:08:12;96209.34;;;18.30;100.00
6829;BME280;17930;48.592;8.868;2023-07-29T06:10:39;96216.59;;;18.33;100.00
6829;BME280;17930;48.592;8.868;2023-07-29T06:13:06;96223.38;;;18.46;100.00
6829;BME280;17930;48.592;8.868;2023-07-29T06:15:34;96226.97;;;18.65;100.00
6829;BME280;17930;48.592;8.868;2023-07-29T06:18:01;96236.13;;;18.55;100.00
6829;BME280;17930;48.592;8.868;2023-07-29T06:20:28;96233.34;;;18.64;100.00
6829;BME280;17930;48.592;8.868;2023-07-29T06:22:55;96236.13;;;18.55;100.00
6829;BME280;17930;48.592;8.868;2023-07-29T06:25:21;96241.88;;;18.46;100.00
6829;BME280;17930;48.592;8.868;2023-07-29T06:27:48;96249.16;;;18.37;100.00
6829;BME280;17930;48.592;8.868;2023-07-29T06:30:15;96254.44;;;18.37;100.00
6829;BME280;17930;48.592;8.868;2023-07-29T06:32:43;96245.53;;;18.41;100.00
6829;BME280;17930;48.592;8.868;2023-07-29T06:35:10;96257.97;;;18.29;100.00
6829;BME280;17930;48.592;8.868;2023-07-29T06:37:36;96256.63;;;18.11;100.00
6829;BME280;17930;48.592;8.868;2023-07-29T06:40:04;96261.72;;;18.16;100.00
6829;BME280;17930;48.592;8.868;2023-07-29T06:42:31;96278.41;;;17.96;100.00
6829;BME280;17930;48.592;8.868;2023-07-29T06:44:57;96302.59;;;17.86;100.00
6829;BME280;17930;48.592;8.868;2023-07-29T06:47:24;96310.94;;;17.76;100.00
6829;BME280;17930;48.592;8.868;2023-07-29T06:49:53;96302.13;;;17.72;100.00
6829;BME280;17930;48.592;8.868;2023-07-29T06:52:20;96282.31;;;17.66;100.00
6829;BME280;17930;48.592;8.868;2023-07-29T06:54:46;96288.44;;;17.46;100.00
6829;BME280;17930;48.592;8.868;2023-07-29T06:57:13;96283.41;;;17.53;100.00
6829;BME280;17930;48.592;8.868;2023-07-29T06:59:40;96273.84;;;17.61;100.00
6829;BME280;17930;48.592;8.868;2023-07-29T07:02:07;96275.50;;;17.65;100.00
6829;BME280;17930;48.592;8.868;2023-07-29T07:04:33;96271.34;;;17.76;100.00
6829;BME280;17930;48.592;8.868;2023-07-29T07:07:02;96270.44;;;17.72;100.00
6829;BME280;17930;48.592;8.868;2023-07-29T07:09:28;96258.91;;;17.77;100.00
6829;BME280;17930;48.592;8.868;2023-07-29T07:11:55;96255.75;;;17.83;100.00
6829;BME280;17930;48.592;8.868;2023-07-29T07:14:21;96266.53;;;17.90;100.00
6829;BME280;17930;48.592;8.868;2023-07-29T07:16:48;96268.97;;;18.07;100.00
6829;BME280;17930;48.592;8.868;2023-07-29T07:19:15;96263.47;;;18.24;100.00
6829;BME280;17930;48.592;8.868;2023-07-29T07:21:41;96263.13;;;18.49;100.00
6829;BME280;17930;48.592;8.868;2023-07-29T07:24:09;96270.13;;;18.69;100.00
6829;BME280;17930;48.592;8.868;2023-07-29T07:26:37;96272.19;;;18.75;100.00
6829;BME280;17930;48.592;8.868;2023-07-29T07:29:03;96265.56;;;18.81;100.00
6829;BME280;17930;48.592;8.868;2023-07-29T07:31:33;96268.19;;;18.93;100.00
6829;BME280;17930;48.592;8.868;2023-07-29T07:33:59;96271.19;;;19.19;100.00
6829;BME280;17930;48.592;8.868;2023-07-29T07:36:27;96256.28;;;19.26;100.00
6829;BME280;17930;48.592;8.868;2023-07-29T07:38:54;96267.25;;;19.40;100.00
6829;BME280;17930;48.592;8.868;2023-07-29T07:41:22;96268.84;;;19.72;100.00
6829;BME280;17930;48.592;8.868;2023-07-29T07:43:49;96267.53;;;19.81;100.00
6829;BME280;17930;48.592;8.868;2023-07-29T07:46:16;96264.06;;;19.93;100.00
6829;BME280;17930;48.592;8.868;2023-07-29T07:48:42;96253.72;;;20.18;100.00
6829;BME280;17930;48.592;8.868;2023-07-29T07:51:10;96243.19;;;20.37;100.00
6829;BME280;17930;48.592;8.868;2023-07-29T07:53:37;96235.75;;;20.61;100.00
6829;BME280;17930;48.592;8.868;2023-07-29T07:56:04;96241.28;;;20.72;100.00
6829;BME280;17930;48.592;8.868;2023-07-29T07:58:32;96238.94;;;20.86;100.00
6829;BME280;17930;48.592;8.868;2023-07-29T08:01:01;96233.50;;;21.16;100.00
6829;BME280;17930;48.592;8.868;2023-07-29T08:03:28;96245.97;;;21.35;100.00
6829;BME280;17930;48.592;8.868;2023-07-29T08:05:54;96248.75;;;21.42;100.00
6829;BME280;17930;48.592;8.868;2023-07-29T08:08:21;96245.31;;;21.41;100.00
6829;BME280;17930;48.592;8.868;2023-07-29T08:10:47;96256.72;;;21.42;100.00
6829;BME280;17930;48.592;8.868;2023-07-29T08:13:14;96259.22;;;21.54;100.00
6829;BME280;17930;48.592;8.868;2023-07-29T08:15:45;96259.88;;;21.69;100.00
6829;BME280;17930;48.592;8.868;2023-07-29T08:18:12;96255.19;;;21.82;100.00
6829;BME280;17930;48.592;8.868;2023-07-29T08:20:39;96276.56;;;21.89;100.00
6829;BME280;17930;48.592;8.868;2023-07-29T08:23:05;96268.13;;;22.28;100.00
6829;BME280;17930;48.592;8.868;2023-07-29T08:25:34;96274.94;;;22.29;100.00
6829;BME280;17930;48.592;8.868;2023-07-29T08:28:01;96277.34;;;22.37;100.00
6829;BME280;17930;48.592;8.868;2023-07-29T08:30:28;96279.25;;;22.63;100.00
6829;BME280;17930;48.592;8.868;2023-07-29T08:32:56;96287.84;;;22.78;100.00
6829;BME280;17930;48.592;8.868;2023-07-29T08:35:22;96295.22;;;22.88;100.00
6829;BME280;17930;48.592;8.868;2023-07-29T08:37:49;96288.69;;;23.12;100.00
6829;BME280;17930;48.592;8.868;2023-07-29T08:40:16;96287.53;;;23.74;100.00
6829;BME280;17930;48.592;8.868;2023-07-29T08:42:45;96288.16;;;24.44;100.00
6829;BME280;17930;48.592;8.868;2023-07-29T08:45:17;96299.56;;;24.41;100.00
6829;BME280;17930;48.592;8.868;2023-07-29T08:47:44;96292.53;;;24.26;100.00
6829;BME280;17930;48.592;8.868;2023-07-29T08:50:13;96294.84;;;24.27;100.00
6829;BME280;17930;48.592;8.868;2023-07-29T08:52:41;96301.31;;;23.87;100.00
6829;BME280;17930;48.592;8.868;2023-07-29T08:55:09;96283.75;;;23.79;100.00
6829;BME280;17930;48.592;8.868;2023-07-29T08:57:36;96301.44;;;23.28;100.00
6829;BME280;17930;48.592;8.868;2023-07-29T09:00:05;96301.78;;;23.60;100.00
6829;BME280;17930;48.592;8.868;2023-07-29T09:02:32;96295.03;;;24.52;100.00
6829;BME280;17930;48.592;8.868;2023-07-29T09:04:59;96297.00;;;25.19;100.00
6829;BME280;17930;48.592;8.868;2023-07-29T09:07:29;96295.72;;;26.04;100.00
6829;BME280;17930;48.592;8.868;2023-07-29T09:09:56;96296.31;;;27.33;100.00
6829;BME280;17930;48.592;8.868;2023-07-29T09:12:23;96298.72;;;27.14;100.00
6829;BME280;17930;48.592;8.868;2023-07-29T09:14:51;96297.03;;;27.58;100.00
6829;BME280;17930;48.592;8.868;2023-07-29T09:17:18;96295.09;;;27.62;100.00
6829;BME280;17930;48.592;8.868;2023-07-29T09:19:47;96290.00;;;28.79;100.00
6829;BME280;17930;48.592;8.868;2023-07-29T09:22:18;96282.16;;;28.07;100.00
6829;BME280;17930;48.592;8.868;2023-07-29T09:24:47;96279.94;;;27.95;100.00
6829;BME280;17930;48.592;8.868;2023-07-29T09:27:23;96270.72;;;27.25;100.00
6829;BME280;17930;48.592;8.868;2023-07-29T09:29:51;96268.94;;;26.74;100.00
6829;BME280;17930;48.592;8.868;2023-07-29T09:32:18;96275.34;;;25.55;100.00
6829;BME280;17930;48.592;8.868;2023-07-29T09:34:46;96281.75;;;25.29;100.00
6829;BME280;17930;48.592;8.868;2023-07-29T09:37:17;96297.50;;;24.77;100.00
6829;BME280;17930;48.592;8.868;2023-07-29T09:39:46;96279.31;;;24.97;100.00
6829;BME280;17930;48.592;8.868;2023-07-29T09:42:17;96268.06;;;25.45;100.00
6829;BME280;17930;48.592;8.868;2023-07-29T09:44:48;96260.56;;;26.58;100.00
6829;BME280;17930;48.592;8.868;2023-07-29T09:47:21;96278.19;;;26.41;100.00
6829;BME280;17930;48.592;8.868;2023-07-29T09:49:48;96257.91;;;26.37;100.00
6829;BME280;17930;48.592;8.868;2023-07-29T09:52:16;96267.41;;;26.80;100.00
6829;BME280;17930;48.592;8.868;2023-07-29T09:54:43;96272.78;;;26.55;100.00
6829;BME280;17930;48.592;8.868;2023-07-29T09:57:13;96265.59;;;27.58;100.00
6829;BME280;17930;48.592;8.868;2023-07-29T09:59:40;96275.22;;;27.56;100.00
6829;BME280;17930;48.592;8.868;2023-07-29T10:02:10;96276.44;;;27.27;100.00
6829;BME280;17930;48.592;8.868;2023-07-29T10:04:41;96283.50;;;26.14;100.00
6829;BME280;17930;48.592;8.868;2023-07-29T10:07:08;96285.44;;;24.97;100.00
6829;BME280;17930;48.592;8.868;2023-07-29T10:09:36;96284.78;;;25.21;100.00
6829;BME280;17930;48.592;8.868;2023-07-29T10:12:04;96292.56;;;25.64;100.00
6829;BME280;17930;48.592;8.868;2023-07-29T10:14:36;96295.69;;;27.01;100.00
6829;BME280;17930;48.592;8.868;2023-07-29T10:17:05;96300.13;;;28.10;100.00
6829;BME280;17930;48.592;8.868;2023-07-29T10:19:34;96299.66;;;29.09;100.00
6829;BME280;17930;48.592;8.868;2023-07-29T10:22:03;96299.88;;;30.14;100.00
6829;BME280;17930;48.592;8.868;2023-07-29T10:24:32;96298.31;;;29.61;100.00
6829;BME280;17930;48.592;8.868;2023-07-29T10:27:00;96295.47;;;28.25;100.00
6829;BME280;17930;48.592;8.868;2023-07-29T10:29:31;96303.31;;;27.95;100.00
6829;BME280;17930;48.592;8.868;2023-07-29T10:32:01;96309.09;;;26.25;100.00
6829;BME280;17930;48.592;8.868;2023-07-29T10:34:30;96305.31;;;26.33;100.00
6829;BME280;17930;48.592;8.868;2023-07-29T10:36:57;96287.72;;;26.53;100.00
6829;BME280;17930;48.592;8.868;2023-07-29T10:39:25;96279.25;;;27.85;100.00
6829;BME280;17930;48.592;8.868;2023-07-29T10:41:55;96283.00;;;28.48;100.00
6829;BME280;17930;48.592;8.868;2023-07-29T10:44:47;96276.41;;;27.34;100.00
6829;BME280;17930;48.592;8.868;2023-07-29T10:47:18;96275.66;;;27.34;100.00
6829;BME280;17930;48.592;8.868;2023-07-29T10:49:46;96276.63;;;28.32;100.00
6829;BME280;17930;48.592;8.868;2023-07-29T10:52:13;96270.59;;;29.64;100.00
6829;BME280;17930;48.592;8.868;2023-07-29T10:54:47;96265.81;;;29.15;100.00
6829;BME280;17930;48.592;8.868;2023-07-29T10:57:14;96277.63;;;28.48;100.00
6829;BME280;17930;48.592;8.868;2023-07-29T10:59:53;96273.00;;;29.55;100.00
6829;BME280;17930;48.592;8.868;2023-07-29T11:02:28;96278.94;;;28.26;100.00
6829;BME280;17930;48.592;8.868;2023-07-29T11:04:55;96284.97;;;26.87;100.00
6829;BME280;17930;48.592;8.868;2023-07-29T11:07:26;96288.09;;;26.48;100.00
6829;BME280;17930;48.592;8.868;2023-07-29T11:10:01;96282.75;;;26.62;100.00
6829;BME280;17930;48.592;8.868;2023-07-29T11:12:37;96294.09;;;27.21;100.00
6829;BME280;17930;48.592;8.868;2023-07-29T11:15:11;96287.09;;;27.48;100.00
6829;BME280;17930;48.592;8.868;2023-07-29T11:17:41;96292.84;;;27.53;100.00
6829;BME280;17930;48.592;8.868;2023-07-29T11:20:09;96290.81;;;27.71;100.00
6829;BME280;17930;48.592;8.868;2023-07-29T11:22:36;96291.34;;;28.10;100.00
6829;BME280;17930;48.592;8.868;2023-07-29T11:25:04;96284.72;;;28.68;100.00
6829;BME280;17930;48.592;8.868;2023-07-29T11:27:32;96294.00;;;28.13;100.00
6829;BME280;17930;48.592;8.868;2023-07-29T11:29:59;96284.78;;;27.53;100.00
6829;BME280;17930;48.592;8.868;2023-07-29T11:32:29;96285.50;;;27.61;100.00
6829;BME280;17930;48.592;8.868;2023-07-29T11:35:05;96276.31;;;28.63;100.00
6829;BME280;17930;48.592;8.868;2023-07-29T11:37:33;96274.28;;;28.81;100.00
6829;BME280;17930;48.592;8.868;2023-07-29T11:40:00;96283.16;;;28.74;100.00
6829;BME280;17930;48.592;8.868;2023-07-29T11:42:28;96272.56;;;29.90;100.00
6829;BME280;17930;48.592;8.868;2023-07-29T11:44:56;96276.00;;;29.34;100.00
6829;BME280;17930;48.592;8.868;2023-07-29T11:47:23;96281.94;;;28.79;100.00
6829;BME280;17930;48.592;8.868;2023-07-29T11:49:50;96272.66;;;29.53;100.00
6829;BME280;17930;48.592;8.868;2023-07-29T11:52:18;96276.09;;;28.87;100.00
6829;BME280;17930;48.592;8.868;2023-07-29T11:54:47;96283.28;;;28.57;100.00
6829;BME280;17930;48.592;8.868;2023-07-29T11:57:16;96281.06;;;28.48;100.00
6829;BME280;17930;48.592;8.868;2023-07-29T11:59:43;96276.34;;;29.36;100.00
6829;BME280;17930;48.592;8.868;2023-07-29T12:02:12;96279.84;;;30.15;100.00
6829;BME280;17930;48.592;8.868;2023-07-29T12:04:40;96268.34;;;29.59;100.00
6829;BME280;17930;48.592;8.868;2023-07-29T12:07:07;96274.75;;;28.69;100.00
6829;BME280;17930;48.592;8.868;2023-07-29T12:09:36;96279.19;;;29.52;100.00
6829;BME280;17930;48.592;8.868;2023-07-29T12:12:05;96264.69;;;29.46;100.00
6829;BME280;17930;48.592;8.868;2023-07-29T12:14:31;96260.88;;;31.68;96.59
6829;BME280;17930;48.592;8.868;2023-07-29T12:17:00;96255.69;;;31.93;92.27
6829;BME280;17930;48.592;8.868;2023-07-29T12:19:33;96259.88;;;31.78;85.10
6829;BME280;17930;48.592;8.868;2023-07-29T12:22:01;96257.53;;;30.41;93.13
6829;BME280;17930;48.592;8.868;2023-07-29T12:24:29;96255.38;;;32.38;89.75
6829;BME280;17930;48.592;8.868;2023-07-29T12:26:58;96254.38;;;32.16;79.49
6829;BME280;17930;48.592;8.868;2023-07-29T12:29:25;96253.41;;;31.37;82.04
6829;BME280;17930;48.592;8.868;2023-07-29T12:31:57;96264.50;;;30.12;86.98
6829;BME280;17930;48.592;8.868;2023-07-29T12:34:25;96265.16;;;29.67;92.03
6829;BME280;17930;48.592;8.868;2023-07-29T12:36:53;96261.16;;;29.79;92.99
6829;BME280;17930;48.592;8.868;2023-07-29T12:39:22;96272.38;;;29.74;90.95
6829;BME280;17930;48.592;8.868;2023-07-29T12:41:50;96277.63;;;28.92;93.95
6829;BME280;17930;48.592;8.868;2023-07-29T12:44:18;96260.97;;;29.03;95.84
6829;BME280;17930;48.592;8.868;2023-07-29T12:46:45;96272.41;;;28.74;100.00
6829;BME280;17930;48.592;8.868;2023-07-29T12:49:12;96274.53;;;28.93;100.00
6829;BME280;17930;48.592;8.868;2023-07-29T12:51:39;96265.34;;;28.91;99.32
6829;BME280;17930;48.592;8.868;2023-07-29T12:54:05;96260.16;;;28.70;100.00
6829;BME280;17930;48.592;8.868;2023-07-29T12:56:32;96269.97;;;27.92;100.00
6829;BME280;17930;48.592;8.868;2023-07-29T12:59:00;96265.16;;;27.67;100.00
6829;BME280;17930;48.592;8.868;2023-07-29T13:01:28;96270.31;;;27.34;100.00
6829;BME280;17930;48.592;8.868;2023-07-29T13:03:55;96272.53;;;27.49;100.00
6829;BME280;17930;48.592;8.868;2023-07-29T13:06:22;96277.91;;;27.49;100.00
6829;BME280;17930;48.592;8.868;2023-07-29T13:08:49;96278.63;;;27.60;100.00
6829;BME280;17930;48.592;8.868;2023-07-29T13:11:16;96273.91;;;28.35;100.00
6829;BME280;17930;48.592;8.868;2023-07-29T13:13:43;96270.94;;;28.63;100.00
6829;BME280;17930;48.592;8.868;2023-07-29T13:16:11;96275.16;;;28.20;100.00
6829;BME280;17930;48.592;8.868;2023-07-29T13:18:43;96270.81;;;27.83;100.00
6829;BME280;17930;48.592;8.868;2023-07-29T13:21:10;96264.03;;;28.65;100.00
6829;BME280;17930;48.592;8.868;2023-07-29T13:23:37;96256.19;;;28.85;100.00
6829;BME280;17930;48.592;8.868;2023-07-29T13:26:03;96252.69;;;29.21;99.57
6829;BME280;17930;48.592;8.868;2023-07-29T13:28:31;96254.59;;;28.91;97.44
6829;BME280;17930;48.592;8.868;2023-07-29T13:30:57;96246.00;;;29.02;93.38
6829;BME280;17930;48.592;8.868;2023-07-29T13:33:24;96256.75;;;28.22;97.95
6829;BME280;17930;48.592;8.868;2023-07-29T13:35:52;96262.34;;;27.88;100.00
6829;BME280;17930;48.592;8.868;2023-07-29T13:38:19;96267.88;;;27.60;100.00
6829;BME280;17930;48.592;8.868;2023-07-29T13:40:46;96264.94;;;27.30;100.00
6829;BME280;17930;48.592;8.868;2023-07-29T13:43:16;96268.19;;;27.76;100.00
6829;BME280;17930;48.592;8.868;2023-07-29T13:45:43;96272.13;;;27.47;100.00
6829;BME280;17930;48.592;8.868;2023-07-29T13:48:10;96269.91;;;27.35;100.00
6829;BME280;17930;48.592;8.868;2023-07-29T13:50:39;96265.63;;;27.44;100.00
6829;BME280;17930;48.592;8.868;2023-07-29T13:53:07;96268.38;;;27.38;100.00
6829;BME280;17930;48.592;8.868;2023-07-29T13:55:34;96278.47;;;26.88;100.00
6829;BME280;17930;48.592;8.868;2023-07-29T13:58:01;96278.50;;;26.75;100.00
6829;BME280;17930;48.592;8.868;2023-07-29T14:00:28;96285.00;;;26.81;100.00
6829;BME280;17930;48.592;8.868;2023-07-29T14:02:55;96279.63;;;26.87;100.00
6829;BME280;17930;48.592;8.868;2023-07-29T14:05:22;96284.75;;;27.57;100.00
6829;BME280;17930;48.592;8.868;2023-07-29T14:07:48;96287.69;;;27.83;100.00
6829;BME280;17930;48.592;8.868;2023-07-29T14:10:16;96297.03;;;27.51;100.00
6829;BME280;17930;48.592;8.868;2023-07-29T14:12:43;96299.47;;;27.14;100.00
6829;BME280;17930;48.592;8.868;2023-07-29T14:15:10;96288.09;;;26.69;100.00
6829;BME280;17930;48.592;8.868;2023-07-29T14:17:37;96283.91;;;26.57;100.00
6829;BME280;17930;48.592;8.868;2023-07-29T14:20:04;96271.22;;;26.85;100.00
6829;BME280;17930;48.592;8.868;2023-07-29T14:22:31;96269.47;;;27.47;100.00
6829;BME280;17930;48.592;8.868;2023-07-29T14:24:58;96272.25;;;27.97;100.00
6829;BME280;17930;48.592;8.868;2023-07-29T14:27:26;96271.91;;;27.10;100.00
6829;BME280;17930;48.592;8.868;2023-07-29T14:29:53;96277.69;;;27.02;100.00
6829;BME280;17930;48.592;8.868;2023-07-29T14:32:20;96279.22;;;26.89;100.00
6829;BME280;17930;48.592;8.868;2023-07-29T14:34:47;96278.88;;;26.77;100.00
6829;BME280;17930;48.592;8.868;2023-07-29T14:37:14;96265.88;;;26.79;100.00
6829;BME280;17930;48.592;8.868;2023-07-29T14:39:41;96278.09;;;26.97;100.00
6829;BME280;17930;48.592;8.868;2023-07-29T14:42:08;96275.81;;;26.92;100.00
6829;BME280;17930;48.592;8.868;2023-07-29T14:44:36;96271.91;;;27.10;100.00
6829;BME280;17930;48.592;8.868;2023-07-29T14:47:02;96272.69;;;27.18;100.00
6829;BME280;17930;48.592;8.868;2023-07-29T14:49:30;96268.03;;;27.22;100.00
6829;BME280;17930;48.592;8.868;2023-07-29T14:51:56;96277.78;;;26.53;100.00
6829;BME280;17930;48.592;8.868;2023-07-29T14:54:23;96280.47;;;26.33;100.00
6829;BME280;17930;48.592;8.868;2023-07-29T14:56:50;96289.59;;;26.21;100.00
6829;BME280;17930;48.592;8.868;2023-07-29T14:59:17;96286.19;;;26.14;100.00
6829;BME280;17930;48.592;8.868;2023-07-29T15:01:44;96286.53;;;25.84;100.00
6829;BME280;17930;48.592;8.868;2023-07-29T15:04:12;96280.06;;;26.06;100.00
6829;BME280;17930;48.592;8.868;2023-07-29T15:06:40;96279.69;;;26.22;100.00
6829;BME280;17930;48.592;8.868;2023-07-29T15:09:06;96285.78;;;26.22;100.00
6829;BME280;17930;48.592;8.868;2023-07-29T15:11:33;96291.56;;;26.31;100.00
6829;BME280;17930;48.592;8.868;2023-07-29T15:14:00;96286.16;;;26.07;100.00
6829;BME280;17930;48.592;8.868;2023-07-29T15:16:36;96281.19;;;26.05;100.00
6829;BME280;17930;48.592;8.868;2023-07-29T15:19:06;96287.34;;;26.23;100.00
6829;BME280;17930;48.592;8.868;2023-07-29T15:21:32;96285.41;;;25.99;100.00
6829;BME280;17930;48.592;8.868;2023-07-29T15:24:00;96285.78;;;26.15;100.00
6829;BME280;17930;48.592;8.868;2023-07-29T15:26:27;96278.91;;;26.14;100.00
6829;BME280;17930;48.592;8.868;2023-07-29T15:28:57;96288.09;;;26.34;100.00
6829;BME280;17930;48.592;8.868;2023-07-29T15:31:24;96286.56;;;26.54;100.00
6829;BME280;17930;48.592;8.868;2023-07-29T15:33:51;96276.19;;;26.94;100.00
6829;BME280;17930;48.592;8.868;2023-07-29T15:36:19;96276.44;;;27.27;100.00
6829;BME280;17930;48.592;8.868;2023-07-29T15:38:47;96275.38;;;27.11;100.00
6829;BME280;17930;48.592;8.868;2023-07-29T15:41:14;96277.16;;;27.35;100.00
6829;BME280;17930;48.592;8.868;2023-07-29T15:43:44;96276.53;;;27.10;100.00
6829;BME280;17930;48.592;8.868;2023-07-29T15:46:11;96270.84;;;26.87;100.00
6829;BME280;17930;48.592;8.868;2023-07-29T15:48:37;96270.09;;;26.69;100.00
6829;BME280;17930;48.592;8.868;2023-07-29T15:51:12;96275.06;;;26.74;100.00
6829;BME280;17930;48.592;8.868;2023-07-29T15:53:40;96263.56;;;26.74;100.00
6829;BME280;17930;48.592;8.868;2023-07-29T15:56:07;96264.78;;;26.31;100.00
6829;BME280;17930;48.592;8.868;2023-07-29T15:58:33;96263.63;;;26.15;100.00
6829;BME280;17930;48.592;8.868;2023-07-29T16:01:00;96260.59;;;26.40;100.00
6829;BME280;17930;48.592;8.868;2023-07-29T16:03:28;96262.41;;;26.95;100.00
6829;BME280;17930;48.592;8.868;2023-07-29T16:05:55;96263.44;;;27.29;100.00
6829;BME280;17930;48.592;8.868;2023-07-29T16:08:23;96257.94;;;27.60;100.00
6829;BME280;17930;48.592;8.868;2023-07-29T16:10:51;96246.25;;;27.88;100.00
6829;BME280;17930;48.592;8.868;2023-07-29T16:13:18;96246.56;;;28.47;100.00
6829;BME280;17930;48.592;8.868;2023-07-29T16:15:45;96245.94;;;28.29;100.00
6829;BME280;17930;48.592;8.868;2023-07-29T16:18:11;96242.19;;;28.63;100.00
6829;BME280;17930;48.592;8.868;2023-07-29T16:20:38;96245.72;;;27.45;100.00
6829;BME280;17930;48.592;8.868;2023-07-29T16:23:05;96246.19;;;27.30;100.00
6829;BME280;17930;48.592;8.868;2023-07-29T16:25:32;96234.50;;;26.79;100.00
6829;BME280;17930;48.592;8.868;2023-07-29T16:28:00;96247.56;;;26.04;100.00
6829;BME280;17930;48.592;8.868;2023-07-29T16:30:27;96255.59;;;25.83;100.00
6829;BME280;17930;48.592;8.868;2023-07-29T16:32:54;96242.91;;;25.63;100.00
6829;BME280;17930;48.592;8.868;2023-07-29T16:35:20;96245.94;;;25.44;100.00
6829;BME280;17930;48.592;8.868;2023-07-29T16:37:47;96249.66;;;25.12;100.00
6829;BME280;17930;48.592;8.868;2023-07-29T16:40:15;96245.78;;;25.03;100.00
6829;BME280;17930;48.592;8.868;2023-07-29T16:42:42;96239.69;;;25.02;100.00
6829;BME280;17930;48.592;8.868;2023-07-29T16:45:10;96270.81;;;24.77;100.00
6829;BME280;17930;48.592;8.868;2023-07-29T16:47:37;96285.53;;;24.04;100.00
6829;BME280;17930;48.592;8.868;2023-07-29T16:50:04;96281.94;;;21.92;100.00
6829;BME280;17930;48.592;8.868;2023-07-29T16:52:31;96285.78;;;20.63;100.00
6829;BME280;17930;48.592;8.868;2023-07-29T16:54:58;96289.78;;;20.07;100.00
6829;BME280;17930;48.592;8.868;2023-07-29T16:57:25;96306.16;;;19.82;100.00
6829;BME280;17930;48.592;8.868;2023-07-29T16:59:54;96315.00;;;19.74;100.00
6829;BME280;17930;48.592;8.868;2023-07-29T17:02:22;96297.69;;;19.77;100.00
6829;BME280;17930;48.592;8.868;2023-07-29T17:04:49;96288.34;;;19.67;100.00
6829;BME280;17930;48.592;8.868;2023-07-29T17:07:16;96286.72;;;19.63;100.00
6829;BME280;17930;48.592;8.868;2023-07-29T17:09:43;96295.69;;;19.58;100.00
6829;BME280;17930;48.592;8.868;2023-07-29T17:12:11;96302.97;;;19.61;100.00
6829;BME280;17930;48.592;8.868;2023-07-29T17:14:38;96303.81;;;19.65;100.00
6829;BME280;17930;48.592;8.868;2023-07-29T17:17:05;96302.81;;;19.85;100.00
6829;BME280;17930;48.592;8.868;2023-07-29T17:19:33;96302.31;;;19.80;100.00
6829;BME280;17930;48.592;8.868;2023-07-29T17:22:00;96302.81;;;19.70;100.00
6829;BME280;17930;48.592;8.868;2023-07-29T17:24:27;96311.09;;;19.68;100.00
6829;BME280;17930;48.592;8.868;2023-07-29T17:26:54;96310.75;;;19.70;100.00
6829;BME280;17930;48.592;8.868;2023-07-29T17:29:21;96310.50;;;19.75;100.00
6829;BME280;17930;48.592;8.868;2023-07-29T17:31:47;96320.50;;;19.81;100.00
6829;BME280;17930;48.592;8.868;2023-07-29T17:34:14;96323.22;;;19.69;100.00
6829;BME280;17930;48.592;8.868;2023-07-29T17:36:42;96326.03;;;19.61;100.00
6829;BME280;17930;48.592;8.868;2023-07-29T17:39:09;96320.63;;;19.57;100.00
6829;BME280;17930;48.592;8.868;2023-07-29T17:41:35;96326.97;;;19.68;100.00
6829;BME280;17930;48.592;8.868;2023-07-29T17:44:02;96324.75;;;19.70;100.00
6829;BME280;17930;48.592;8.868;2023-07-29T17:46:29;96324.59;;;19.63;100.00
6829;BME280;17930;48.592;8.868;2023-07-29T17:48:56;96320.31;;;19.74;100.00
6829;BME280;17930;48.592;8.868;2023-07-29T17:51:22;96326.19;;;19.95;100.00